createdAt,value
2017-08-08T00:00:06.427Z,63.90
2017-08-08T00:02:34.555Z,64.80
2017-08-08T00:05:03.332Z,64.50
2017-08-08T00:07:31.424Z,65.40
2017-08-08T00:09:59.853Z,63.80
2017-08-08T00:12:28.069Z,63.90
2017-08-08T00:14:57.059Z,63.90
2017-08-08T00:17:25.592Z,64.40
2017-08-08T00:19:55.535Z,64.00
2017-08-08T00:22:23.238Z,64.20
2017-08-08T00:24:52.058Z,64.60
2017-08-08T00:27:20.317Z,64.60
2017-08-08T00:29:48.556Z,64.70
2017-08-08T00:32:17.091Z,64.80
2017-08-08T00:34:44.963Z,65.30
2017-08-08T00:37:12.977Z,65.70
2017-08-08T00:39:41.414Z,65.70
2017-08-08T00:42:09.021Z,65.50
2017-08-08T00:44:37.128Z,65.40
2017-08-08T00:47:05.279Z,65.50
2017-08-08T00:49:33.176Z,65.60
2017-08-08T00:52:00.724Z,66.00
2017-08-08T00:54:29.998Z,67.90
2017-08-08T00:56:57.543Z,67.90
2017-08-08T00:59:25.771Z,66.60
2017-08-08T01:01:53.785Z,66.00
2017-08-08T01:04:21.385Z,65.80
2017-08-08T01:06:49.908Z,65.90
2017-08-08T01:09:17.627Z,65.80
2017-08-08T01:11:46.575Z,66.70
2017-08-08T01:14:14.277Z,65.90
2017-08-08T01:16:42.171Z,65.70
2017-08-08T01:19:10.677Z,66.90
2017-08-08T01:21:38.904Z,66.80
2017-08-08T01:24:06.518Z,67.60
2017-08-08T01:26:34.982Z,66.60
2017-08-08T01:29:03.176Z,65.80
2017-08-08T01:31:31.043Z,66.00
2017-08-08T01:33:58.858Z,65.70
2017-08-08T01:36:27.597Z,65.60
2017-08-08T01:38:56.263Z,65.00
2017-08-08T01:41:24.067Z,65.30
2017-08-08T01:43:51.711Z,65.70
2017-08-08T01:46:19.532Z,66.70
2017-08-08T01:48:47.391Z,68.20
2017-08-08T01:51:15.395Z,65.80
2017-08-08T01:53:43.185Z,66.80
2017-08-08T01:56:11.017Z,65.70
2017-08-08T01:58:38.652Z,65.60
2017-08-08T02:01:06.438Z,65.60
2017-08-08T02:03:34.254Z,65.90
2017-08-08T02:06:02.245Z,66.50
2017-08-08T02:08:30.434Z,65.90
2017-08-08T02:10:59.022Z,65.70
2017-08-08T02:13:27.219Z,65.40
2017-08-08T02:15:56.729Z,65.20
2017-08-08T02:18:24.876Z,64.80
2017-08-08T02:20:52.671Z,65.00
2017-08-08T02:23:20.700Z,65.10
2017-08-08T02:25:48.682Z,65.10
2017-08-08T02:28:17.683Z,65.30
2017-08-08T02:30:46.252Z,65.40
2017-08-08T02:33:13.793Z,65.20
2017-08-08T02:35:41.564Z,66.20
2017-08-08T02:38:09.986Z,67.00
2017-08-08T02:40:38.825Z,67.60
2017-08-08T02:43:06.828Z,66.90
2017-08-08T02:45:34.533Z,66.40
2017-08-08T02:48:02.803Z,66.00
2017-08-08T02:50:30.567Z,66.00
2017-08-08T02:52:59.219Z,66.00
2017-08-08T02:55:26.916Z,67.10
2017-08-08T02:57:55.633Z,66.00
2017-08-08T03:00:23.112Z,66.80
2017-08-08T03:02:51.035Z,65.60
2017-08-08T03:05:18.544Z,65.70
2017-08-08T03:07:46.157Z,65.80
2017-08-08T03:10:14.550Z,66.00
2017-08-08T03:12:42.093Z,65.90
2017-08-08T03:15:09.634Z,65.70
2017-08-08T03:17:37.368Z,65.80
2017-08-08T03:20:04.906Z,66.80
2017-08-08T03:22:32.505Z,67.60
2017-08-08T03:25:00.006Z,67.60
2017-08-08T03:27:27.751Z,68.30
2017-08-08T03:29:56.275Z,69.10
2017-08-08T03:32:23.811Z,68.30
2017-08-08T03:34:52.026Z,67.70
2017-08-08T03:37:19.543Z,68.30
2017-08-08T03:39:48.622Z,68.30
2017-08-08T03:42:16.096Z,68.30
2017-08-08T03:44:43.809Z,68.00
2017-08-08T03:47:11.363Z,69.20
2017-08-08T03:49:38.842Z,68.70
2017-08-08T03:52:06.349Z,67.70
2017-08-08T03:54:33.843Z,67.60
2017-08-08T03:57:01.384Z,67.40
2017-08-08T03:59:29.219Z,66.70
2017-08-08T04:01:56.779Z,67.30
2017-08-08T04:04:25.022Z,69.80
2017-08-08T04:06:52.527Z,69.20
2017-08-08T04:09:20.026Z,67.60
2017-08-08T04:11:47.591Z,69.10
2017-08-08T04:14:15.112Z,69.50
2017-08-08T04:16:42.706Z,69.70
2017-08-08T04:19:10.190Z,70.00
2017-08-08T04:21:37.684Z,71.50
2017-08-08T04:24:05.183Z,70.90
2017-08-08T04:26:32.694Z,70.40
2017-08-08T04:29:00.984Z,70.00
2017-08-08T04:31:28.481Z,69.90
2017-08-08T04:33:56.090Z,70.50
2017-08-08T04:36:24.333Z,69.80
2017-08-08T04:38:51.883Z,69.70
2017-08-08T04:41:19.379Z,70.30
2017-08-08T04:43:47.704Z,72.60
2017-08-08T04:46:15.225Z,71.70
2017-08-08T04:48:43.475Z,71.10
2017-08-08T04:51:11.681Z,71.00
2017-08-08T04:53:40.045Z,68.00
2017-08-08T04:56:07.868Z,67.90
2017-08-08T04:58:35.730Z,67.60
2017-08-08T05:01:03.523Z,69.30
2017-08-08T05:03:31.022Z,68.70
2017-08-08T05:05:58.514Z,68.80
2017-08-08T05:08:26.771Z,68.50
2017-08-08T05:10:54.682Z,69.40
2017-08-08T05:13:22.167Z,68.80
2017-08-08T05:15:49.747Z,69.80
2017-08-08T05:18:17.242Z,71.30
2017-08-08T05:20:44.721Z,71.10
2017-08-08T05:23:12.805Z,71.30
2017-08-08T05:25:41.047Z,71.20
2017-08-08T05:28:08.865Z,70.00
2017-08-08T05:30:37.090Z,71.80
2017-08-08T05:33:04.889Z,72.10
2017-08-08T05:35:32.848Z,72.10
2017-08-08T05:38:00.415Z,74.30
2017-08-08T05:40:28.422Z,72.60
2017-08-08T05:42:56.941Z,72.20
2017-08-08T05:45:24.587Z,72.10
2017-08-08T05:47:52.315Z,74.30
2017-08-08T05:50:20.000Z,72.60
2017-08-08T05:52:48.208Z,71.70
2017-08-08T05:55:15.696Z,72.60
2017-08-08T05:57:43.194Z,72.90
2017-08-08T06:00:10.684Z,72.90
2017-08-08T06:02:38.178Z,74.00
2017-08-08T06:05:05.654Z,74.60
2017-08-08T06:07:33.146Z,74.30
2017-08-08T06:10:00.630Z,74.80
2017-08-08T06:12:28.742Z,72.60
2017-08-08T06:14:56.789Z,72.60
2017-08-08T06:17:25.083Z,70.20
2017-08-08T06:19:53.213Z,71.50
2017-08-08T06:22:23.557Z,72.90
2017-08-08T06:24:52.338Z,72.30
2017-08-08T06:27:20.795Z,71.60
2017-08-08T06:29:48.892Z,69.80
2017-08-08T06:32:16.573Z,71.20
2017-08-08T06:34:44.906Z,72.70
2017-08-08T06:37:13.618Z,69.50
2017-08-08T06:39:41.528Z,69.40
2017-08-08T06:42:09.096Z,68.40
2017-08-08T06:44:37.191Z,70.10
2017-08-08T06:47:05.011Z,69.10
2017-08-08T06:49:32.996Z,68.80
2017-08-08T06:52:00.836Z,68.60
2017-08-08T06:54:29.574Z,67.90
2017-08-08T06:56:58.614Z,67.50
2017-08-08T06:59:26.580Z,67.40
2017-08-08T07:01:54.903Z,67.40
2017-08-08T07:04:23.577Z,67.50
2017-08-08T07:06:51.734Z,66.90
2017-08-08T07:09:19.726Z,66.70
2017-08-08T07:11:48.072Z,66.70
2017-08-08T07:14:16.546Z,66.50
2017-08-08T07:16:45.179Z,66.80
2017-08-08T07:19:13.387Z,66.60
2017-08-08T07:21:41.384Z,66.40
2017-08-08T07:24:08.962Z,66.30
2017-08-08T07:26:36.922Z,66.90
2017-08-08T07:29:04.882Z,66.70
2017-08-08T07:31:32.961Z,66.20
2017-08-08T07:34:01.038Z,66.20
2017-08-08T07:36:29.279Z,66.00
2017-08-08T07:38:57.453Z,65.80
2017-08-08T07:41:25.452Z,65.90
2017-08-08T07:43:53.292Z,65.80
2017-08-08T07:46:21.817Z,66.00
2017-08-08T07:48:49.672Z,65.90
2017-08-08T07:51:18.013Z,66.10
2017-08-08T07:53:47.316Z,66.30
2017-08-08T07:56:16.087Z,66.20
2017-08-08T07:58:44.431Z,66.20
2017-08-08T08:01:12.934Z,66.40
2017-08-08T08:03:40.851Z,66.50
2017-08-08T08:06:09.888Z,66.40
2017-08-08T08:08:41.068Z,66.30
2017-08-08T08:11:09.054Z,66.40
2017-08-08T08:13:39.620Z,65.80
2017-08-08T08:16:08.606Z,65.80
2017-08-08T08:18:36.700Z,65.70
2017-08-08T08:21:04.651Z,65.70
2017-08-08T08:23:32.582Z,65.80
2017-08-08T08:26:00.210Z,64.90
2017-08-08T08:28:28.882Z,65.10
2017-08-08T08:30:56.375Z,65.00
2017-08-08T08:33:24.768Z,65.80
2017-08-08T08:35:53.281Z,64.40
2017-08-08T08:38:20.953Z,64.60
2017-08-08T08:40:49.194Z,64.60
2017-08-08T08:43:17.091Z,64.30
2017-08-08T08:45:45.297Z,63.00
2017-08-08T08:48:13.310Z,62.50
2017-08-08T08:50:41.039Z,62.00
2017-08-08T08:53:09.302Z,62.60
2017-08-08T08:55:37.258Z,62.10
2017-08-08T08:58:05.105Z,62.10
2017-08-08T09:00:33.199Z,61.60
2017-08-08T09:03:01.066Z,60.90
2017-08-08T09:05:29.339Z,60.90
2017-08-08T09:07:57.007Z,60.90
2017-08-08T09:10:25.286Z,60.60
2017-08-08T09:12:53.379Z,60.20
2017-08-08T09:15:21.280Z,59.80
2017-08-08T09:17:50.010Z,60.60
2017-08-08T09:20:18.392Z,60.50
2017-08-08T09:22:46.705Z,59.60
2017-08-08T09:25:14.641Z,59.20
2017-08-08T09:27:42.859Z,59.00
2017-08-08T09:30:10.646Z,58.20
2017-08-08T09:32:39.478Z,58.00
2017-08-08T09:35:06.999Z,58.00
2017-08-08T09:37:35.917Z,57.20
2017-08-08T09:40:04.610Z,57.20
2017-08-08T09:42:32.959Z,57.20
2017-08-08T09:45:01.192Z,57.10
2017-08-08T09:47:28.738Z,57.30
2017-08-08T09:49:56.638Z,56.70
2017-08-08T09:52:24.362Z,56.10
2017-08-08T09:54:52.001Z,53.00
2017-08-08T09:57:20.233Z,49.50
2017-08-08T09:59:47.892Z,47.20
2017-08-08T10:02:15.936Z,46.70
2017-08-08T10:04:43.614Z,46.60
2017-08-08T10:07:12.000Z,46.00
2017-08-08T10:09:39.992Z,45.80
2017-08-08T10:12:08.483Z,45.40
2017-08-08T10:14:37.117Z,46.00
2017-08-08T10:17:04.935Z,47.10
2017-08-08T10:19:32.758Z,49.10
2017-08-08T10:22:00.930Z,50.50
2017-08-08T10:24:29.204Z,51.30
2017-08-08T10:26:57.869Z,51.30
2017-08-08T10:29:25.883Z,51.20
2017-08-08T10:31:53.971Z,51.30
2017-08-08T10:34:22.013Z,50.90
2017-08-08T10:36:50.101Z,51.30
2017-08-08T10:39:18.078Z,51.50
2017-08-08T10:41:45.981Z,51.30
2017-08-08T10:44:14.483Z,50.90
2017-08-08T10:46:42.229Z,50.80
2017-08-08T10:49:10.648Z,51.60
2017-08-08T10:51:39.166Z,51.60
2017-08-08T10:54:06.861Z,51.40
2017-08-08T10:56:35.786Z,51.20
2017-08-08T10:59:03.961Z,51.10
2017-08-08T11:01:32.810Z,51.10
2017-08-08T11:04:01.387Z,50.90
2017-08-08T11:06:30.126Z,50.90
2017-08-08T11:08:59.250Z,51.30
2017-08-08T11:11:26.997Z,51.60
2017-08-08T11:13:54.995Z,51.10
2017-08-08T11:16:24.335Z,51.40
2017-08-08T11:18:52.641Z,51.30
2017-08-08T11:21:21.648Z,51.10
2017-08-08T11:23:49.928Z,50.90
2017-08-08T11:26:19.074Z,50.80
2017-08-08T11:28:48.041Z,51.20
2017-08-08T11:31:16.279Z,51.20
2017-08-08T11:33:44.554Z,51.30
2017-08-08T11:36:12.618Z,52.10
2017-08-08T11:38:41.017Z,52.10
2017-08-08T11:41:09.049Z,52.00
2017-08-08T11:43:37.571Z,51.50
2017-08-08T11:46:05.954Z,51.40
2017-08-08T11:48:34.952Z,51.00
2017-08-08T11:51:02.891Z,50.70
2017-08-08T11:53:30.982Z,50.70
2017-08-08T11:55:58.644Z,50.60
2017-08-08T11:58:26.751Z,51.20
2017-08-08T12:00:55.017Z,51.60
2017-08-08T12:03:23.167Z,51.10
2017-08-08T12:05:51.147Z,50.50
2017-08-08T12:08:19.123Z,50.00
2017-08-08T12:10:47.048Z,50.20
2017-08-08T12:13:15.818Z,50.10
2017-08-08T12:15:43.762Z,50.00
2017-08-08T12:18:11.745Z,50.60
2017-08-08T12:20:39.793Z,50.50
2017-08-08T12:23:08.289Z,50.50
2017-08-08T12:25:36.357Z,49.90
2017-08-08T12:28:04.618Z,50.10
2017-08-08T12:30:32.772Z,49.90
2017-08-08T12:33:00.730Z,50.10
2017-08-08T12:35:28.502Z,49.50
2017-08-08T12:37:56.300Z,49.30
2017-08-08T12:40:23.815Z,48.90
2017-08-08T12:42:52.140Z,48.60
2017-08-08T12:45:19.905Z,48.50
2017-08-08T12:47:47.484Z,48.30
2017-08-08T12:50:14.991Z,48.30
2017-08-08T12:52:42.567Z,47.90
2017-08-08T12:55:10.542Z,47.90
2017-08-08T12:57:38.634Z,48.10
2017-08-08T13:00:06.126Z,49.00
2017-08-08T13:02:33.634Z,48.70
2017-08-08T13:05:01.114Z,48.40
2017-08-08T13:07:28.613Z,48.60
2017-08-08T13:09:56.864Z,48.90
2017-08-08T13:12:24.353Z,48.90
2017-08-08T13:14:52.617Z,49.60
2017-08-08T13:17:20.874Z,50.10
2017-08-08T13:19:48.353Z,50.00
2017-08-08T13:22:16.622Z,51.20
2017-08-08T13:24:44.098Z,51.20
2017-08-08T13:27:12.359Z,50.70
2017-08-08T13:29:39.867Z,50.60
2017-08-08T13:32:07.347Z,50.80
2017-08-08T13:34:34.839Z,51.40
2017-08-08T13:37:03.116Z,50.70
2017-08-08T13:39:30.589Z,50.70
2017-08-08T13:41:58.831Z,50.80
2017-08-08T13:44:26.318Z,50.80
2017-08-08T13:46:54.579Z,50.70
2017-08-08T13:49:22.055Z,50.70
2017-08-08T13:51:50.320Z,50.50
2017-08-08T13:54:17.803Z,50.40
2017-08-08T13:56:46.051Z,51.30
2017-08-08T13:59:13.558Z,51.20
2017-08-08T14:01:41.051Z,51.10
2017-08-08T14:04:08.530Z,50.80
2017-08-08T14:06:36.045Z,51.00
2017-08-08T14:09:03.559Z,51.10
2017-08-08T14:11:31.815Z,51.20
2017-08-08T14:13:59.314Z,52.00
2017-08-08T14:16:26.806Z,51.80
2017-08-08T14:18:54.285Z,51.60
2017-08-08T14:21:21.793Z,51.80
2017-08-08T14:23:49.279Z,52.10
2017-08-08T14:26:16.767Z,52.00
2017-08-08T14:28:44.258Z,51.40
2017-08-08T14:31:12.516Z,51.60
2017-08-08T14:33:40.009Z,51.60
2017-08-08T14:36:07.512Z,51.20
2017-08-08T14:38:34.994Z,51.60
2017-08-08T14:41:02.487Z,51.50
2017-08-08T14:43:29.983Z,51.10
2017-08-08T14:45:57.479Z,50.70
2017-08-08T14:48:24.962Z,51.20
2017-08-08T14:50:52.461Z,51.50
2017-08-08T14:53:19.939Z,51.00
2017-08-08T14:55:47.422Z,51.00
2017-08-08T14:58:15.693Z,50.60
2017-08-08T15:00:43.945Z,51.10
2017-08-08T15:03:11.431Z,51.00
2017-08-08T15:05:39.702Z,51.30
2017-08-08T15:08:07.182Z,50.90
2017-08-08T15:10:35.426Z,50.90
2017-08-08T15:13:02.942Z,50.90
2017-08-08T15:15:30.421Z,50.90
2017-08-08T15:17:57.906Z,51.20
2017-08-08T15:20:25.384Z,51.30
2017-08-08T15:22:53.639Z,51.40
2017-08-08T15:25:21.132Z,51.40
2017-08-08T15:27:49.395Z,52.00
2017-08-08T15:30:17.645Z,52.20
2017-08-08T15:32:45.133Z,52.00
2017-08-08T15:35:13.407Z,51.70
2017-08-08T15:37:41.663Z,51.40
2017-08-08T15:40:09.166Z,51.40
2017-08-08T15:42:36.658Z,51.50
2017-08-08T15:45:04.160Z,52.10
2017-08-08T15:47:31.633Z,52.40
2017-08-08T15:49:59.900Z,52.60
2017-08-08T15:52:28.158Z,52.60
2017-08-08T15:54:55.635Z,52.60
2017-08-08T15:57:23.894Z,52.90
2017-08-08T15:59:51.377Z,52.90
2017-08-08T16:02:19.643Z,53.30
2017-08-08T16:04:47.142Z,53.30
2017-08-08T16:07:14.635Z,53.30
2017-08-08T16:09:42.129Z,53.20
2017-08-08T16:12:10.400Z,53.20
2017-08-08T16:14:38.640Z,53.10
2017-08-08T16:17:06.134Z,53.10
2017-08-08T16:19:34.389Z,53.20
2017-08-08T16:22:01.878Z,53.10
2017-08-08T16:24:30.193Z,52.90
2017-08-08T16:26:57.682Z,52.80
2017-08-08T16:29:25.168Z,52.80
2017-08-08T16:31:53.418Z,52.50
2017-08-08T16:34:20.919Z,52.40
2017-08-08T16:36:49.166Z,52.50
2017-08-08T16:39:16.655Z,53.10
2017-08-08T16:41:44.920Z,52.40
2017-08-08T16:44:13.162Z,52.40
2017-08-08T16:46:40.654Z,52.30
2017-08-08T16:49:08.919Z,52.20
2017-08-08T16:51:36.407Z,52.20
2017-08-08T16:54:03.885Z,52.60
2017-08-08T16:56:31.387Z,52.50
2017-08-08T16:58:58.870Z,52.50
2017-08-08T17:01:28.042Z,52.70
2017-08-08T17:03:55.542Z,52.60
2017-08-08T17:06:23.020Z,52.70
2017-08-08T17:08:50.510Z,52.80
2017-08-08T17:11:18.002Z,53.30
2017-08-08T17:13:46.263Z,53.00
2017-08-08T17:16:13.752Z,53.00
2017-08-08T17:18:41.250Z,53.40
2017-08-08T17:21:08.720Z,53.50
2017-08-08T17:23:36.219Z,53.60
2017-08-08T17:26:04.494Z,53.90
2017-08-08T17:28:32.735Z,54.20
2017-08-08T17:31:00.228Z,54.10
2017-08-08T17:33:28.494Z,54.30
2017-08-08T17:35:55.964Z,54.20
2017-08-08T17:38:24.205Z,54.50
2017-08-08T17:40:51.698Z,54.50
2017-08-08T17:43:19.952Z,54.80
2017-08-08T17:45:47.459Z,54.80
2017-08-08T17:48:14.979Z,54.90
2017-08-08T17:50:42.472Z,55.10
2017-08-08T17:53:09.954Z,55.30
2017-08-08T17:55:37.444Z,55.40
2017-08-08T17:58:04.930Z,55.50
2017-08-08T18:00:33.182Z,55.30
2017-08-08T18:03:00.664Z,55.30
2017-08-08T18:05:28.923Z,57.60
2017-08-08T18:07:56.444Z,57.70
2017-08-08T18:10:23.938Z,58.10
2017-08-08T18:12:51.422Z,58.30
2017-08-08T18:15:18.924Z,58.60
2017-08-08T18:17:46.416Z,58.80
2017-08-08T18:20:13.926Z,59.10
2017-08-08T18:22:41.420Z,59.60
2017-08-08T18:25:08.920Z,59.80
2017-08-08T18:27:37.179Z,60.40
2017-08-08T18:30:04.672Z,60.30
2017-08-08T18:32:32.184Z,60.90
2017-08-08T18:34:59.680Z,61.80
2017-08-08T18:37:27.935Z,61.70
2017-08-08T18:39:55.434Z,61.70
2017-08-08T18:42:22.918Z,61.90
2017-08-08T18:44:50.402Z,62.30
2017-08-08T18:47:17.901Z,62.30
2017-08-08T18:49:45.430Z,62.70
2017-08-08T18:52:12.914Z,62.90
2017-08-08T18:54:41.178Z,63.50
2017-08-08T18:57:08.677Z,63.30
2017-08-08T18:59:36.156Z,63.40
2017-08-08T19:02:03.658Z,63.80
2017-08-08T19:04:31.916Z,64.10
2017-08-08T19:06:59.407Z,64.10
2017-08-08T19:09:26.910Z,64.00
2017-08-08T19:11:54.390Z,64.10
2017-08-08T19:14:21.868Z,64.60
2017-08-08T19:16:49.358Z,63.90
2017-08-08T19:19:16.841Z,64.20
2017-08-08T19:21:44.318Z,64.40
2017-08-08T19:24:11.815Z,64.50
2017-08-08T19:26:39.308Z,64.60
2017-08-08T19:29:06.789Z,65.70
2017-08-08T19:31:34.288Z,66.00
2017-08-08T19:34:02.551Z,65.80
2017-08-08T19:36:30.071Z,65.60
2017-08-08T19:38:57.557Z,65.90
2017-08-08T19:41:25.037Z,66.30
2017-08-08T19:43:52.512Z,66.30
2017-08-08T19:46:20.008Z,66.30
2017-08-08T19:48:48.362Z,67.30
2017-08-08T19:51:15.838Z,67.70
2017-08-08T19:53:43.904Z,67.40
2017-08-08T19:56:12.229Z,67.90
2017-08-08T19:58:39.705Z,67.80
2017-08-08T20:01:07.993Z,68.10
2017-08-08T20:03:35.488Z,68.00
2017-08-08T20:06:02.969Z,69.70
2017-08-08T20:08:30.462Z,68.40
2017-08-08T20:10:58.718Z,69.50
2017-08-08T20:13:26.202Z,69.50
2017-08-08T20:15:54.479Z,69.80
2017-08-08T20:18:22.742Z,70.90
2017-08-08T20:20:51.002Z,71.30
2017-08-08T20:23:18.506Z,70.50
2017-08-08T20:25:45.990Z,70.60
2017-08-08T20:28:13.473Z,70.80
2017-08-08T20:30:40.999Z,70.60
2017-08-08T20:33:08.481Z,70.70
2017-08-08T20:35:35.962Z,71.50
2017-08-08T20:38:03.459Z,71.40
2017-08-08T20:40:30.970Z,72.50
2017-08-08T20:42:58.450Z,71.80
2017-08-08T20:45:25.958Z,72.00
2017-08-08T20:47:53.450Z,72.00
2017-08-08T20:50:20.942Z,72.30
2017-08-08T20:52:49.221Z,72.40
2017-08-08T20:55:16.713Z,72.30
2017-08-08T20:57:44.198Z,72.60
2017-08-08T21:00:11.703Z,72.70
2017-08-08T21:02:39.215Z,72.60
2017-08-08T21:05:06.706Z,73.30
2017-08-08T21:07:34.216Z,73.30
2017-08-08T21:12:38.435Z,74.20
2017-08-08T21:15:05.921Z,74.60
2017-08-08T21:17:33.407Z,74.80
2017-08-08T21:20:00.903Z,75.80
2017-08-08T21:22:28.371Z,77.20
2017-08-08T21:24:55.851Z,76.50
2017-08-08T21:27:23.351Z,76.30
2017-08-08T21:29:50.826Z,76.60
2017-08-08T21:32:18.304Z,76.40
2017-08-08T21:34:45.973Z,76.50
2017-08-08T21:37:13.541Z,75.80
2017-08-08T21:39:41.094Z,76.20
2017-08-08T21:42:08.597Z,77.00
2017-08-08T21:44:36.083Z,76.80
2017-08-08T21:47:04.339Z,76.40
2017-08-08T21:49:31.834Z,76.30
2017-08-08T21:51:59.315Z,76.50
2017-08-08T21:54:26.804Z,77.10
2017-08-08T21:56:54.297Z,76.70
2017-08-08T21:59:26.944Z,76.10
2017-08-08T22:01:54.640Z,76.00
2017-08-08T22:04:22.269Z,77.00
2017-08-08T22:06:49.863Z,75.10
2017-08-08T22:09:17.372Z,75.80
2017-08-08T22:11:44.859Z,76.50
2017-08-08T22:14:12.344Z,76.20
2017-08-08T22:16:45.304Z,76.50
2017-08-08T22:19:13.188Z,76.80
2017-08-08T22:21:40.675Z,77.00
2017-08-08T22:24:08.174Z,77.30
2017-08-08T22:26:35.648Z,77.10
2017-08-08T22:29:03.162Z,77.10
2017-08-08T22:31:30.662Z,77.40
2017-08-08T22:33:58.160Z,77.10
2017-08-08T22:36:25.651Z,77.70
2017-08-08T22:38:53.151Z,77.50
2017-08-08T22:41:21.401Z,77.70
2017-08-08T22:43:48.894Z,77.60
2017-08-08T22:46:16.408Z,77.50
2017-08-08T22:48:43.895Z,77.90
2017-08-08T22:51:11.370Z,78.20
2017-08-08T22:53:38.988Z,78.60
2017-08-08T22:56:06.474Z,78.40
2017-08-08T22:58:33.961Z,78.30
2017-08-08T23:01:02.209Z,78.60
2017-08-08T23:03:29.754Z,78.60
2017-08-08T23:05:57.325Z,78.70
2017-08-08T23:08:24.852Z,78.60
2017-08-08T23:10:52.571Z,78.70
2017-08-08T23:13:20.865Z,79.50
2017-08-08T23:15:48.411Z,79.40
2017-08-08T23:18:15.951Z,79.10
2017-08-08T23:20:43.430Z,79.30
2017-08-08T23:23:10.932Z,79.40
2017-08-08T23:25:38.409Z,79.70
2017-08-08T23:28:05.896Z,78.90
2017-08-08T23:30:33.398Z,79.10
2017-08-08T23:33:00.876Z,78.70
2017-08-08T23:35:28.359Z,78.40
2017-08-08T23:37:55.854Z,78.80
2017-08-08T23:40:23.336Z,78.80
2017-08-08T23:42:50.810Z,79.50
2017-08-08T23:45:18.316Z,79.80
2017-08-08T23:47:46.556Z,79.60
2017-08-08T23:50:14.034Z,79.60
2017-08-08T23:52:41.526Z,79.50
2017-08-08T23:55:09.775Z,80.00
2017-08-08T23:57:37.263Z,80.00
